Latest Weather Observations for Norah Head

IDN60901

Issued at 5:15 pm EST Thursday 31 July 2014 (issued every 10 minutes, with the page automatically refreshed every 10 minutes)

About weather observations | Map of Sydney area stations | Latest observations for Sydney area | Other Formats
Station Details ID: 061366 Name: NORAH HEAD AWS Lat: -33.28 Lon: 151.58 Height: 18.8 m
Data from the previous 72 hours. | See also: Recent months at Norah Head
Date/Time
EST
Tmp

°C
App
Tmp
°C
Dew
Point
°C
Rel
Hum
%
Delta-T

°C
Wind Press
QNH
hPa
Press
MSL
hPa
Rain
since
9 am
mm
Dir
 
Spd
km/h
Gust
km/h
Spd
kts
Gust
kts
31/05:00pm 19.8 13.2 7.9 46 6.1 N 32 35 17 19 1008.3 1008.3 0.0
31/04:30pm 20.1 13.5 7.8 45 6.3 N 32 35 17 19 1008.3 - 0.0
31/04:00pm 21.3 14.8 6.4 38 7.6 NNW 30 41 16 22 1008.5 1008.5 0.0
31/03:30pm 21.6 17.2 7.4 40 7.3 NNW 20 33 11 18 1008.9 - 0.0
31/03:00pm 22.9 17.5 4.4 30 9.1 NW 22 39 12 21 1009.0 1009.0 0.0
31/02:38pm 23.0 16.4 4.0 29 9.3 NW 28 48 15 26 1009.0 - 0.0
31/02:30pm 23.1 17.5 3.6 28 9.5 NW 22 44 12 24 1009.1 - 0.0
31/02:00pm 23.3 18.0 5.2 31 9.1 NW 22 37 12 20 1009.7 1009.6 0.0
31/01:30pm 23.1 18.0 6.0 33 8.7 NW 22 37 12 20 1010.0 - 0.0
31/01:00pm 22.8 17.2 5.3 32 8.8 NW 24 41 13 22 1010.8 1010.7 0.0
31/12:30pm 22.9 18.5 6.6 35 8.4 NNW 19 35 10 19 1011.6 - 0.0
31/12:00pm 22.8 18.3 6.1 34 8.5 NNW 19 32 10 17 1012.6 1012.6 0.0
31/11:30am 22.7 18.9 7.7 38 7.8 NW 17 24 9 13 1013.4 - 0.0
31/11:00am 21.5 16.4 7.7 41 7.2 N 24 32 13 17 1014.0 1014.0 0.0
31/10:30am 21.7 17.2 8.6 43 6.9 NNW 22 28 12 15 1014.5 - 0.0
31/10:00am 20.1 14.7 8.1 46 6.2 N 26 30 14 16 1014.9 1014.9 0.0
31/09:30am 18.8 12.1 8.2 50 5.5 N 33 37 18 20 1015.1 - 0.0
31/09:00am 18.1 11.0 8.1 52 5.1 N 35 41 19 22 1015.3 1015.3 0.0
31/08:30am 17.7 11.5 7.7 52 5.1 N 30 33 16 18 1015.5 - 0.0
31/08:00am 16.7 12.0 7.6 55 4.6 NNW 22 30 12 16 1015.6 1015.6 0.0
31/07:30am 14.4 11.4 7.7 64 3.3 NNW 13 19 7 10 1015.8 - 0.0
31/07:00am 12.0 9.5 6.7 70 2.5 NNW 9 11 5 6 1015.8 1015.8 0.0
31/06:30am 12.1 9.6 6.6 69 2.6 NNW 9 9 5 5 1015.9 - 0.0
31/06:00am 12.3 10.2 6.8 69 2.6 NW 7 9 4 5 1015.7 1015.7 0.0
31/05:30am 12.6 10.4 7.7 72 2.4 NW 9 13 5 7 1015.5 - 0.0
31/05:00am 12.5 10.2 7.6 72 2.4 NW 9 11 5 6 1015.5 1015.5 0.0
31/04:30am 12.5 10.1 7.0 69 2.6 NW 9 13 5 7 1015.5 - 0.0
31/04:00am 11.9 9.6 7.4 74 2.2 NW 9 13 5 7 1015.5 1015.5 0.0
31/03:30am 12.5 10.5 8.8 78 1.9 NNW 9 13 5 7 1015.6 - 0.0
31/03:00am 12.7 10.1 9.5 81 1.6 NNW 13 17 7 9 1015.7 1015.7 0.0
31/02:30am 12.6 9.9 8.9 78 1.9 NW 13 17 7 9 1015.9 - 0.0
31/02:00am 12.8 10.4 8.5 75 2.1 NW 11 15 6 8 1016.1 1016.1 0.0
31/01:30am 13.5 11.1 8.8 73 2.4 NW 11 13 6 7 1016.3 - 0.0
31/01:00am 14.2 12.8 8.8 70 2.7 WNW 6 9 3 5 1016.7 1016.7 0.0
31/12:30am 15.0 12.5 8.3 64 3.4 NNW 11 17 6 9 1017.0 - 0.0
31/12:00am 14.6 12.8 7.9 64 3.3 NW 7 13 4 7 1017.5 1017.5 0.0
 
Date/Time
EST
Tmp

°C
App
Tmp
°C
Dew
Point
°C
Rel
Hum
%
Delta-T

°C
Wind Press
QNH
hPa
Press
MSL
hPa
Rain
since
9 am
mm
Dir
 
Spd
km/h
Gust
km/h
Spd
kts
Gust
kts
30/11:30pm 15.7 13.9 7.2 57 4.2 WNW 6 9 3 5 1017.6 - 0.0
30/11:00pm 15.8 14.6 8.1 60 3.9 WNW 4 7 2 4 1017.8 1017.8 0.0
30/10:30pm 15.8 14.2 7.8 59 4.0 WNW 6 11 3 6 1018.1 - 0.0
30/10:00pm 16.3 14.8 8.3 59 4.1 WNW 6 9 3 5 1018.1 1018.1 0.0
30/09:30pm 16.7 15.1 8.1 57 4.4 WNW 6 15 3 8 1018.2 - 0.0
30/09:00pm 17.1 15.2 7.7 54 4.7 WNW 7 11 4 6 1018.1 1018.1 0.0
30/08:30pm 16.9 15.0 7.5 54 4.7 WNW 7 17 4 9 1018.0 - 0.0
30/08:00pm 16.9 15.3 7.8 55 4.6 WNW 6 11 3 6 1017.9 1017.9 0.0
30/07:30pm 17.1 15.4 7.5 53 4.8 WNW 6 9 3 5 1017.7 - 0.0
30/07:00pm 17.4 16.1 7.5 52 5.0 WNW 4 9 2 5 1017.3 1017.3 0.0
30/06:30pm 17.7 16.3 7.2 50 5.3 WNW 4 7 2 4 1016.9 - 0.0
30/06:00pm 18.7 17.0 7.5 48 5.7 WNW 6 9 3 5 1016.4 1016.4 0.0
30/05:30pm 18.9 17.2 7.4 47 5.8 WNW 6 15 3 8 1016.1 - 0.0
30/05:00pm 19.9 18.0 7.6 45 6.3 WNW 7 15 4 8 1016.0 1016.0 0.0
30/04:30pm 20.6 18.4 7.9 44 6.6 WNW 9 19 5 10 1015.5 - 0.0
30/04:00pm 21.3 19.0 7.5 41 7.1 WNW 9 22 5 12 1015.3 1015.3 0.0
30/03:30pm 21.8 19.3 8.0 41 7.2 WNW 11 28 6 15 1015.2 - 0.0
30/03:00pm 21.9 19.8 8.4 42 7.1 WNW 9 22 5 12 1015.4 1015.4 0.0
30/02:30pm 22.5 19.9 7.9 39 7.6 WNW 11 20 6 11 1015.2 - 0.0
30/02:00pm 22.5 20.3 7.9 39 7.6 WNW 9 26 5 14 1015.4 1015.4 0.0
30/01:30pm 22.4 20.2 7.8 39 7.6 W 9 22 5 12 1015.5 - 0.0
30/01:00pm 22.1 19.8 7.5 39 7.6 WNW 9 19 5 10 1016.0 1016.0 0.0
30/12:30pm 21.3 18.7 7.9 42 7.0 WNW 11 20 6 11 1016.4 - 0.0
30/12:00pm 21.5 19.4 8.4 43 6.9 NW 9 17 5 9 1017.1 1017.1 0.0
30/11:30am 20.6 18.0 7.9 44 6.6 NW 11 26 6 14 1017.6 - 0.0
30/11:00am 20.3 16.9 7.7 44 6.5 NW 15 24 8 13 1017.9 1017.9 0.0
30/10:30am 19.4 16.7 7.2 45 6.2 NW 11 20 6 11 1018.5 - 0.0
30/10:00am 19.5 16.5 7.6 46 6.1 NW 13 19 7 10 1019.2 1019.2 0.0
30/09:30am 18.4 15.8 6.3 45 6.0 NW 9 17 5 9 1019.4 - 0.0
30/09:00am 17.8 15.6 6.0 46 5.8 NW 7 15 4 8 1019.0 1019.0 0.0
30/08:30am 16.8 15.1 5.7 48 5.4 WNW 4 11 2 6 1019.2 - 0.0
30/08:00am 16.3 14.4 6.7 53 4.7 NW 6 9 3 5 1018.8 1018.8 0.0
30/07:30am 14.6 12.1 6.4 58 4.0 NNW 9 13 5 7 1018.3 - 0.0
30/07:00am 13.7 11.7 6.1 60 3.6 NNW 6 9 3 5 1018.2 1018.2 0.0
30/06:30am 13.1 10.3 6.9 66 3.0 N 11 15 6 8 1017.9 - 0.0
30/06:00am 13.5 11.1 5.2 57 3.9 N 7 20 4 11 1017.4 1017.4 0.0
30/05:30am 14.3 11.8 4.6 52 4.5 NW 7 13 4 7 1017.1 - 0.0
30/05:00am 14.4 11.9 4.7 52 4.5 WNW 7 15 4 8 1016.3 1016.3 0.0
30/04:30am 14.5 11.8 3.6 48 5.0 WNW 7 17 4 9 1016.6 - 0.0
30/04:00am 14.5 11.5 4.2 50 4.7 NW 9 19 5 10 1016.8 1016.8 0.0
30/03:30am 14.3 11.6 5.4 55 4.2 WNW 9 17 5 9 1016.7 - 0.0
30/03:00am 13.9 10.6 6.3 60 3.6 NW 13 17 7 9 1016.7 1016.7 0.0
30/02:30am 13.3 10.6 7.5 68 2.8 NNW 11 15 6 8 1016.7 - 0.0
30/02:00am 13.7 11.2 6.6 62 3.4 NNW 9 13 5 7 1016.9 1016.9 0.0
30/01:30am 14.5 11.9 6.3 58 3.9 NW 9 15 5 8 1016.9 - 0.0
30/01:00am 14.8 11.9 6.4 57 4.1 NW 11 15 6 8 1016.9 1016.9 0.0
30/12:30am 14.8 12.0 6.9 59 3.9 NW 11 20 6 11 1016.9 - 0.0
30/12:00am 13.9 11.5 7.0 63 3.3 NW 9 15 5 8 1017.0 1017.0 0.0
 
Date/Time
EST
Tmp

°C
App
Tmp
°C
Dew
Point
°C
Rel
Hum
%
Delta-T

°C
Wind Press
QNH
hPa
Press
MSL
hPa
Rain
since
9 am
mm
Dir
 
Spd
km/h
Gust
km/h
Spd
kts
Gust
kts
29/11:30pm 13.7 11.1 6.3 61 3.5 WNW 9 11 5 6 1017.2 - 0.0
29/11:00pm 13.4 11.4 7.2 66 3.0 NNW 7 11 4 6 1017.3 1017.3 0.0
29/10:30pm 13.6 10.9 7.2 65 3.1 NNW 11 15 6 8 1017.3 - 0.0
29/10:00pm 14.2 11.0 6.8 61 3.6 NNW 13 17 7 9 1017.3 1017.3 0.0
29/09:30pm 14.6 11.4 6.7 59 3.8 NW 13 19 7 10 1017.3 - 0.0
29/09:00pm 14.7 12.3 7.0 60 3.8 NW 9 15 5 8 1017.3 1017.3 0.0
29/08:30pm 14.6 11.6 7.6 63 3.5 NNW 13 19 7 10 1017.3 - 0.0
29/08:00pm 15.2 12.9 7.3 59 3.9 NW 9 15 5 8 1017.2 1017.2 0.0
29/07:30pm 14.9 11.9 7.9 63 3.5 NW 13 20 7 11 1017.0 - 0.0
29/07:00pm 15.2 12.0 8.4 64 3.4 NNW 15 20 8 11 1016.7 1016.7 0.0
29/06:30pm 15.5 12.2 9.6 68 3.1 NNW 17 22 9 12 1016.8 - 0.0
29/06:00pm 15.9 13.1 8.6 62 3.7 NNW 13 17 7 9 1016.6 1016.6 0.0
29/05:30pm 16.9 13.2 10.1 64 3.6 N 20 22 11 12 1015.8 - 0.0
29/05:00pm 17.3 13.6 9.5 60 4.1 NNW 19 20 10 11 1015.8 1015.8 0.0
29/04:30pm 18.2 13.7 8.7 54 4.9 N 22 28 12 15 1015.8 - 0.0
29/04:00pm 19.0 14.1 7.1 46 6.0 NNW 22 32 12 17 1015.1 1015.1 0.0
29/03:30pm 19.5 14.5 6.6 43 6.5 NNW 22 32 12 17 1014.9 - 0.0
29/03:00pm 20.6 16.6 5.0 36 7.6 NW 15 26 8 14 1015.1 1015.1 0.0
29/02:30pm 20.4 17.2 5.2 37 7.5 NW 11 24 6 13 1015.4 - 0.0
29/02:00pm 20.7 18.3 7.0 41 7.0 NW 9 17 5 9 1015.7 1015.7 0.0
29/01:30pm 20.7 18.2 6.6 40 7.1 WNW 9 19 5 10 1015.8 - 0.0
29/01:00pm 20.8 17.9 8.1 44 6.6 WNW 13 22 7 12 1015.8 1015.8 0.0
29/12:30pm 20.1 16.7 7.5 44 6.5 NW 15 28 8 15 1016.1 - 0.0
29/12:00pm 19.4 16.2 6.8 44 6.3 NW 13 28 7 15 1016.7 1016.7 0.0
29/11:30am 18.5 15.1 5.7 43 6.3 WNW 13 30 7 16 1017.6 - 0.0
29/11:00am 18.2 15.2 6.1 45 5.9 NW 11 22 6 12 1018.5 1018.5 0.0
29/10:30am 18.0 14.4 5.2 43 6.2 WNW 13 22 7 12 1018.9 - 0.0
29/10:00am 18.5 15.1 5.7 43 6.2 WNW 13 28 7 15 1019.0 1019.0 0.0
29/09:30am 17.8 14.9 6.3 47 5.7 WNW 11 26 6 14 1019.2 - 0.0
29/09:00am 17.4 14.5 6.3 48 5.4 NW 11 22 6 12 1018.9 1018.9 0.0
29/08:30am 16.5 13.7 6.9 53 4.7 NW 11 20 6 11 1018.9 - 0.0
29/08:00am 15.4 12.9 6.4 55 4.4 NW 9 19 5 10 1018.9 1018.9 0.0
29/07:30am 13.8 10.7 5.7 58 3.8 WNW 11 22 6 12 1018.8 - 0.0
29/07:00am 12.5 10.3 6.3 66 2.9 WNW 7 13 4 7 1018.8 1018.8 0.0
29/06:30am 12.2 9.5 5.8 65 3.0 WNW 9 15 5 8 1018.5 - 0.0
29/06:00am 12.1 9.4 5.5 64 3.1 WNW 9 15 5 8 1018.3 1018.3 0.0
29/05:30am 11.8 9.2 5.9 67 2.8 WNW 9 13 5 7 1018.2 - 0.0
29/05:00am 12.2 9.7 6.5 68 2.7 NW 9 15 5 8 1018.0 1018.0 0.0
29/04:30am 12.8 10.5 5.9 63 3.3 WNW 7 17 4 9 1018.0 - 0.0
29/04:00am 12.8 10.5 5.5 61 3.4 WNW 7 13 4 7 1018.0 1018.0 0.0
29/03:30am 12.6 10.0 6.2 65 3.0 WNW 9 15 5 8 1017.8 - 0.0
29/03:00am 12.1 9.8 5.9 66 2.9 NW 7 11 4 6 1018.2 1018.2 0.0
29/02:30am 12.2 9.7 6.5 68 2.7 NW 9 13 5 7 1018.1 - 0.0
29/02:00am 11.3 9.1 6.4 72 2.3 NW 7 9 4 5 1018.4 1018.4 0.0
29/01:30am 11.3 9.0 5.6 68 2.6 NW 7 7 4 4 1018.5 - 0.0
29/01:00am 12.3 10.2 5.9 65 3.0 NW 6 9 3 5 1018.5 1018.5 0.0
29/12:30am 12.5 10.3 6.1 65 3.0 WNW 7 9 4 5 1018.9 - 0.0
29/12:00am 12.3 10.2 5.9 65 3.0 WNW 6 9 3 5 1019.2 1019.2 0.0
 
Date/Time
EST
Tmp

°C
App
Tmp
°C
Dew
Point
°C
Rel
Hum
%
Delta-T

°C
Wind Press
QNH
hPa
Press
MSL
hPa
Rain
since
9 am
mm
Dir
 
Spd
km/h
Gust
km/h
Spd
kts
Gust
kts
28/11:30pm 12.5 10.4 5.7 63 3.2 WNW 6 7 3 4 1019.8 - 0.0
28/11:00pm 12.9 10.8 5.6 61 3.4 WNW 6 11 3 6 1019.9 1019.9 0.0
28/10:30pm 13.2 11.0 6.1 62 3.4 WNW 7 15 4 8 1019.7 - 0.0
28/10:00pm 13.5 11.3 6.1 61 3.5 WNW 7 15 4 8 1020.0 1020.0 0.0
28/09:30pm 13.3 11.2 6.6 64 3.2 WNW 7 15 4 8 1019.8 - 0.0
28/09:00pm 13.2 11.2 7.2 67 2.9 WNW 7 13 4 7 1019.7 1019.7 0.0
28/08:30pm 13.8 12.0 7.8 67 3.0 WNW 7 13 4 7 1019.6 - 0.0
28/08:00pm 13.9 12.2 7.4 65 3.2 WNW 6 11 3 6 1019.4 1019.4 0.0
28/07:30pm 13.8 11.9 7.6 66 3.1 WNW 7 11 4 6 1019.4 - 0.0
28/07:00pm 13.2 11.4 7.9 70 2.6 NW 7 11 4 6 1019.2 1019.2 0.0
28/06:30pm 13.5 11.7 8.1 70 2.7 NNW 7 9 4 5 1019.1 - 0.0
28/06:00pm 13.8 12.2 8.0 68 2.9 NNW 6 9 3 5 1018.8 1018.8 0.0
28/05:30pm 15.0 13.1 4.7 50 4.8 WNW 4 7 2 4 1018.8 - 0.0

Latest Capital City Observations: Canberra | Sydney | Melbourne | Brisbane | Adelaide | Perth | Hobart | Darwin

Other Formats:

Comma delimited format used in spreadsheet applications
http://www.bom.gov.au/fwo/IDN60901/IDN60901.95770.axf

JavaScript Object Notation format (JSON) in row-major order
http://www.bom.gov.au/fwo/IDN60901/IDN60901.95770.json